Time;durP1;ratioP1;P1;durP2;ratioP2;P2;SDS_P1;SDS_P2;PMS_P1;PMS_P2;Temp;Humidity;BMP_temperature;BMP_pressure;BME280_temperature;BME280_humidity;BME280_pressure;Samples;Min_cycle;Max_cycle;Signal;HPM_P1;HPM_P2
2022/07/05 00:00:30;;;;;;;;;3.00;1.00;;;;;21.14;44.40;101752.13;5030386;28;46047;-63
2022/07/05 00:02:55;;;;;;;;;2.00;2.00;;;;;21.09;44.97;101758.50;5028090;28;44913;-66
2022/07/05 00:05:20;;;;;;;;;3.33;0.00;;;;;21.04;44.70;101746.72;5028141;28;45226;-61
2022/07/05 00:07:46;;;;;;;;;1.00;1.00;;;;;21.08;44.62;101746.69;5031209;28;45052;-66
2022/07/05 00:10:11;;;;;;;;;2.00;1.00;;;;;21.04;45.00;101750.34;5030955;28;45625;-62
2022/07/05 00:12:37;;;;;;;;;1.00;1.00;;;;;20.92;45.22;101747.63;5028339;28;45069;-61
2022/07/05 00:15:03;;;;;;;;;1.00;1.00;;;;;20.83;45.40;101750.34;5029982;28;45115;-65
2022/07/05 00:17:28;;;;;;;;;1.67;1.00;;;;;20.77;45.52;101756.66;5030264;28;45027;-65
2022/07/05 00:19:56;;;;;;;;;3.00;1.00;;;;;20.76;45.20;101750.34;5027551;28;45033;-69
2022/07/05 00:22:21;;;;;;;;;1.33;0.67;;;;;20.69;45.52;101747.63;5027326;28;45135;-65
2022/07/05 00:24:47;;;;;;;;;3.00;1.00;;;;;20.69;45.44;101753.97;5030917;28;44938;-68
2022/07/05 00:27:12;;;;;;;;;4.00;1.00;;;;;20.70;45.25;101754.88;5031378;28;45142;-69
2022/07/05 00:29:37;;;;;;;;;2.67;1.33;;;;;20.70;45.43;101749.44;5027321;28;45392;-68
2022/07/05 00:32:03;;;;;;;;;0.00;0.00;;;;;20.58;45.49;101744.88;5028413;28;45216;-69
2022/07/05 00:34:28;;;;;;;;;1.00;1.00;;;;;20.67;45.59;101754.88;5029399;28;45435;-65
2022/07/05 00:36:53;;;;;;;;;1.67;1.00;;;;;20.62;45.15;101750.31;5027227;28;45744;-67
2022/07/05 00:39:19;;;;;;;;;2.00;1.00;;;;;20.62;45.58;101758.47;5029302;28;45620;-67
2022/07/05 00:41:44;;;;;;;;;1.00;1.00;;;;;20.57;45.50;101760.28;5029984;28;45043;-69
2022/07/05 00:44:11;;;;;;;;;3.00;1.00;;;;;20.54;45.99;101757.53;5026867;28;45124;-69
2022/07/05 00:46:38;;;;;;;;;2.00;2.00;;;;;20.52;45.93;101751.19;5027658;28;44892;-64
2022/07/05 00:49:04;;;;;;;;;3.33;2.00;;;;;20.49;46.08;101753.94;5029939;28;45428;-67
2022/07/05 00:51:31;;;;;;;;;2.00;1.33;;;;;20.46;46.19;101750.28;5023909;28;44879;-62
2022/07/05 00:53:57;;;;;;;;;1.67;1.00;;;;;20.41;46.34;101747.56;5032347;28;45164;-68
2022/07/05 00:56:24;;;;;;;;;1.67;0.33;;;;;20.37;46.20;101752.06;5031439;28;45205;-66
2022/07/05 00:58:50;;;;;;;;;2.00;2.00;;;;;20.39;46.44;101755.72;5033933;28;45147;-67
2022/07/05 01:01:16;;;;;;;;;1.00;1.00;;;;;20.35;46.28;101750.28;5033386;28;45149;-71
2022/07/05 01:03:43;;;;;;;;;0.67;0.67;;;;;20.30;46.49;101761.09;5033101;28;45074;-69
2022/07/05 01:06:11;;;;;;;;;1.00;1.00;;;;;20.17;46.97;101753.84;5032386;28;45016;-65
2022/07/05 01:08:41;;;;;;;;;1.00;1.00;;;;;20.05;46.98;101752.00;5032646;28;45749;-68
2022/07/05 01:11:09;;;;;;;;;1.00;1.00;;;;;20.03;47.57;101748.38;5033216;28;45227;-69
2022/07/05 01:13:36;;;;;;;;;3.00;1.67;;;;;19.98;47.71;101750.16;5031406;28;44931;-68
2022/07/05 01:16:03;;;;;;;;;1.00;1.00;;;;;19.90;47.67;101742.00;5033807;28;45249;-65
2022/07/05 01:18:29;;;;;;;;;1.00;1.00;;;;;19.86;47.82;101742.88;5033352;28;45241;-65
2022/07/05 01:20:55;;;;;;;;;0.00;0.00;;;;;19.84;47.75;101748.28;5033599;28;45220;-64
2022/07/05 01:23:22;;;;;;;;;1.00;0.67;;;;;19.83;47.63;101748.28;5031917;28;45239;-64
2022/07/05 01:25:48;;;;;;;;;1.00;1.00;;;;;19.87;47.72;101748.31;5031616;28;44928;-64
2022/07/05 01:28:14;;;;;;;;;1.00;1.00;;;;;19.88;47.81;101746.50;5032690;28;45473;-68
2022/07/05 01:30:41;;;;;;;;;1.33;0.67;;;;;19.89;47.52;101745.59;5032502;28;45020;-67
2022/07/05 01:33:07;;;;;;;;;2.33;2.33;;;;;19.85;47.81;101746.50;5032043;28;45215;-65
2022/07/05 01:35:33;;;;;;;;;1.67;1.00;;;;;19.54;47.99;101691.22;5032512;28;45324;-68
2022/07/05 01:37:59;;;;;;;;;0.33;0.00;;;;;19.68;47.91;101717.47;5033166;28;45581;-68
2022/07/05 01:40:24;;;;;;;;;1.00;1.00;;;;;19.79;48.00;101746.47;5032893;28;45059;-67
2022/07/05 01:42:50;;;;;;;;;1.00;1.00;;;;;19.62;48.09;101724.69;5032149;28;45099;-68
2022/07/05 01:48:02;;;;;;;;;2.00;0.67;;;;;19.38;48.35;101714.63;5031071;28;45092;-63
2022/07/05 01:50:28;;;;;;;;;1.33;1.00;;;;;19.44;48.48;101747.19;5032422;28;45809;-62
2022/07/05 01:52:58;;;;;;;;;1.00;1.00;;;;;19.34;48.70;101732.66;5030936;28;44914;-63
2022/07/05 01:55:23;;;;;;;;;2.00;2.00;;;;;19.29;49.19;101745.28;5031864;28;45323;-67
2022/07/05 01:57:49;;;;;;;;;3.00;1.00;;;;;19.28;49.61;101744.34;5031196;28;45520;-66
2022/07/05 02:00:14;;;;;;;;;1.33;1.33;;;;;19.15;50.01;101728.91;5031624;28;45300;-66
2022/07/05 02:02:42;;;;;;;;;1.00;1.00;;;;;19.29;50.28;101748.88;5032299;28;44956;-68
2022/07/05 02:05:07;;;;;;;;;0.67;0.67;;;;;19.23;50.30;101735.28;5029771;28;44944;-65
2022/07/05 02:07:32;;;;;;;;;1.00;1.00;;;;;19.24;50.72;101747.06;5033762;28;45168;-61
2022/07/05 02:09:58;;;;;;;;;2.00;1.00;;;;;19.28;50.60;101740.75;5028175;28;45213;-61
2022/07/05 02:12:23;;;;;;;;;2.00;1.00;;;;;19.27;51.06;101742.56;5029028;28;48539;-62
2022/07/05 02:14:48;;;;;;;;;0.00;0.00;;;;;19.26;51.01;101746.16;5033158;28;45018;-61
2022/07/05 02:17:14;;;;;;;;;1.00;1.00;;;;;19.08;51.01;101703.59;5031359;28;49768;-63
2022/07/05 02:19:39;;;;;;;;;4.33;2.00;;;;;19.33;50.94;101738.97;5032239;28;45426;-68
2022/07/05 02:22:04;;;;;;;;;1.00;1.00;;;;;19.26;51.24;101731.72;5025297;28;45212;-63
2022/07/05 02:24:30;;;;;;;;;1.33;1.33;;;;;19.19;51.57;101729.84;5030817;28;44942;-64
2022/07/05 02:26:55;;;;;;;;;1.00;1.00;;;;;19.13;52.17;101738.84;5027692;28;45482;-69
2022/07/05 02:29:21;;;;;;;;;0.00;0.00;;;;;19.04;52.63;101742.41;5029382;28;45228;-68
2022/07/05 02:31:46;;;;;;;;;3.33;1.33;;;;;18.98;53.35;101728.81;5029844;28;45194;-66
2022/07/05 02:34:11;;;;;;;;;3.33;1.00;;;;;18.86;53.43;101732.34;5032509;28;44972;-69
2022/07/05 02:36:37;;;;;;;;;2.00;0.33;;;;;18.88;53.60;101740.47;5031790;28;45144;-66
2022/07/05 02:39:02;;;;;;;;;2.33;1.00;;;;;18.87;53.72;101744.97;5031069;28;45261;-67
2022/07/05 02:41:27;;;;;;;;;2.00;2.00;;;;;18.77;54.22;101745.75;5030759;28;45025;-64
2022/07/05 02:43:53;;;;;;;;;1.00;1.00;;;;;18.72;54.21;101724.06;5032593;28;45118;-69
2022/07/05 02:46:18;;;;;;;;;2.00;2.00;;;;;18.79;54.06;101738.53;5032600;28;45655;-64
2022/07/05 02:48:43;;;;;;;;;2.33;1.33;;;;;18.76;54.01;101728.63;5029897;28;45016;-65
2022/07/05 02:51:09;;;;;;;;;5.00;4.00;;;;;18.73;54.14;101728.59;5032885;28;45390;-64
2022/07/05 02:53:34;;;;;;;;;2.00;2.00;;;;;18.55;54.07;101699.56;5031557;28;45022;-63
2022/07/05 02:56:01;;;;;;;;;4.00;2.00;;;;;18.64;54.22;101730.31;5031567;28;44986;-67
2022/07/05 02:58:26;;;;;;;;;3.67;3.67;;;;;18.64;54.83;101735.72;5029567;28;45072;-68
2022/07/05 03:00:52;;;;;;;;;2.00;2.00;;;;;18.70;54.51;101733.97;5025771;28;45380;-66
2022/07/05 03:03:17;;;;;;;;;2.00;2.00;;;;;18.63;54.53;101725.75;5032114;28;44942;-69
2022/07/05 03:05:43;;;;;;;;;2.33;2.00;;;;;18.72;54.46;101736.69;5031791;28;45513;-65
2022/07/05 03:08:08;;;;;;;;;2.00;1.33;;;;;18.70;54.46;101733.06;5030906;28;45171;-69
2022/07/05 03:10:34;;;;;;;;;2.00;2.00;;;;;18.70;54.49;101739.38;5032057;28;45235;-69
2022/07/05 03:13:00;;;;;;;;;4.00;1.00;;;;;18.65;54.70;101738.44;5031758;28;44944;-69
2022/07/05 03:15:26;;;;;;;;;3.00;2.00;;;;;18.58;54.73;101732.06;5032131;28;45140;-67
2022/07/05 03:17:51;;;;;;;;;3.00;2.00;;;;;18.68;54.95;101734.88;5029589;28;45207;-63
2022/07/05 03:20:16;;;;;;;;;1.67;1.00;;;;;18.74;54.36;101735.81;5030778;28;45104;-65
2022/07/05 03:22:42;;;;;;;;;2.67;1.00;;;;;18.79;54.23;101739.47;5029575;28;44984;-61
2022/07/05 03:25:07;;;;;;;;;7.67;3.67;;;;;18.76;54.02;101731.31;5029024;28;45172;-67
2022/07/05 03:27:33;;;;;;;;;2.00;2.00;;;;;18.87;53.91;101735.94;5027836;28;45101;-67
2022/07/05 03:29:58;;;;;;;;;6.00;5.00;;;;;18.72;54.21;101720.44;5036048;28;45115;-63
2022/07/05 03:32:23;;;;;;;;;4.33;3.33;;;;;18.64;54.48;101725.78;5028579;28;45207;-65
2022/07/05 03:34:49;;;;;;;;;4.33;3.00;;;;;18.56;54.78;101724.81;5027214;28;45160;-64
2022/07/05 03:37:14;;;;;;;;;4.33;3.67;;;;;18.47;54.67;101714.81;5030833;28;46382;-63
2022/07/05 03:39:39;;;;;;;;;5.00;5.00;;;;;18.63;54.95;101748.34;5028811;28;45323;-67
2022/07/05 03:42:05;;;;;;;;;4.67;4.00;;;;;18.62;54.75;101741.09;5026486;28;45014;-65
2022/07/05 03:44:32;;;;;;;;;3.00;3.00;;;;;18.58;55.08;101758.22;5030263;28;45614;-66
2022/07/05 03:46:58;;;;;;;;;3.00;2.00;;;;;18.49;55.00;101745.50;5031423;28;45068;-65
2022/07/05 03:49:23;;;;;;;;;5.00;3.00;;;;;18.52;55.29;101759.06;5029638;28;45012;-67
2022/07/05 03:51:48;;;;;;;;;3.33;3.33;;;;;18.44;55.86;101754.47;5031479;28;45512;-65
2022/07/05 03:54:14;;;;;;;;;2.67;2.33;;;;;18.33;55.84;101760.69;5030782;28;52730;-65
2022/07/05 03:56:39;;;;;;;;;8.67;3.00;;;;;18.35;55.87;101763.41;5030920;28;45101;-67
2022/07/05 03:59:05;;;;;;;;;5.00;3.00;;;;;18.29;56.00;101752.53;5028551;28;45045;-64
2022/07/05 04:01:30;;;;;;;;;5.67;5.67;;;;;18.36;55.79;101776.97;5029844;28;45033;-67
2022/07/05 04:03:56;;;;;;;;;7.00;3.00;;;;;18.38;55.96;101774.28;5031021;28;44986;-65
2022/07/05 04:06:21;;;;;;;;;2.00;2.00;;;;;18.39;55.96;101774.25;5030918;28;45039;-68
2022/07/05 04:08:46;;;;;;;;;2.67;2.67;;;;;18.28;55.79;101750.69;5029185;28;45115;-65
2022/07/05 04:11:13;;;;;;;;;2.67;2.67;;;;;18.43;55.45;101764.41;5031199;28;45116;-65
2022/07/05 04:13:40;;;;;;;;;4.00;4.00;;;;;17.98;55.85;101690.91;5029241;28;45635;-67
2022/07/05 04:16:05;;;;;;;;;3.00;3.00;;;;;18.25;56.33;101754.28;5030602;28;45152;-69
2022/07/05 04:18:30;;;;;;;;;2.00;2.00;;;;;18.26;56.39;101763.31;5029678;28;45392;-64
2022/07/05 04:20:56;;;;;;;;;4.00;3.00;;;;;18.29;56.21;101768.75;5030634;28;45091;-68
2022/07/05 04:23:21;;;;;;;;;2.67;2.67;;;;;18.31;56.20;101784.09;5030029;28;45614;-65
2022/07/05 04:25:47;;;;;;;;;3.00;3.00;;;;;18.38;56.32;101791.41;5029351;28;45001;-68
2022/07/05 04:28:12;;;;;;;;;5.67;4.00;;;;;18.45;55.66;101796.88;5028113;28;45145;-68
2022/07/05 04:30:37;;;;;;;;;3.33;3.33;;;;;18.41;56.08;101785.09;5032466;28;45070;-64
2022/07/05 04:33:03;;;;;;;;;5.67;4.67;;;;;18.43;55.92;101788.75;5027511;28;45520;-67
2022/07/05 04:35:28;;;;;;;;;5.00;3.00;;;;;18.50;55.96;101789.72;5033328;28;51874;-67
2022/07/05 04:37:53;;;;;;;;;7.00;3.67;;;;;18.48;55.81;101778.88;5033091;28;45218;-68
2022/07/05 04:40:19;;;;;;;;;5.67;5.33;;;;;18.55;56.05;101787.97;5034307;28;45064;-66
2022/07/05 04:42:44;;;;;;;;;8.33;5.33;;;;;18.36;55.75;101758.03;5032507;28;45728;-66
2022/07/05 04:45:09;;;;;;;;;4.67;2.67;;;;;18.54;55.73;101788.84;5033583;28;44954;-66
2022/07/05 04:47:35;;;;;;;;;2.33;2.33;;;;;18.55;55.89;101788.88;5033817;28;45081;-64
2022/07/05 04:50:02;;;;;;;;;5.00;5.00;;;;;18.60;56.01;101795.22;5033364;28;45107;-67
2022/07/05 04:52:27;;;;;;;;;7.00;5.00;;;;;18.57;55.91;101791.59;5027517;28;45134;-67
2022/07/05 04:54:54;;;;;;;;;9.33;5.00;;;;;18.49;56.10;101775.25;5033407;28;45111;-69
2022/07/05 04:57:19;;;;;;;;;6.00;5.00;;;;;18.14;56.20;101723.50;5034022;28;45254;-64
2022/07/05 04:59:44;;;;;;;;;6.33;4.67;;;;;18.51;56.36;101796.94;5033744;28;45088;-67
2022/07/05 05:02:10;;;;;;;;;5.00;3.67;;;;;18.56;56.05;101796.09;5031435;28;44974;-66
2022/07/05 05:04:35;;;;;;;;;4.67;4.00;;;;;18.36;56.43;101766.13;5033166;28;45302;-68
2022/07/05 05:07:01;;;;;;;;;3.67;2.00;;;;;18.55;55.79;101801.50;5032657;28;45363;-61
2022/07/05 05:09:26;;;;;;;;;3.67;3.67;;;;;18.55;55.90;101799.69;5027449;28;45009;-68
2022/07/05 05:11:51;;;;;;;;;7.00;7.00;;;;;18.47;55.94;101784.28;5030203;28;46261;-62
2022/07/05 05:14:17;;;;;;;;;11.00;8.00;;;;;18.47;56.14;101790.59;5033320;28;45181;-66
2022/07/05 05:16:42;;;;;;;;;6.25;6.25;;;;;18.60;55.93;101806.06;5032194;28;46237;-64
2022/07/05 05:19:07;;;;;;;;;7.00;5.33;;;;;18.63;56.25;101804.25;5032001;28;45043;-65
2022/07/05 05:21:33;;;;;;;;;6.00;4.67;;;;;18.47;56.00;101782.47;5030998;28;45290;-63
2022/07/05 05:23:58;;;;;;;;;11.75;11.50;;;;;18.62;56.17;101802.47;5029979;28;45278;-64
2022/07/05 05:26:24;;;;;;;;;12.25;9.25;;;;;18.58;56.18;101809.66;5030289;28;45267;-63
2022/07/05 05:28:50;;;;;;;;;7.00;5.33;;;;;18.63;56.21;101817.78;5033043;28;45411;-64
2022/07/05 05:31:17;;;;;;;;;9.67;8.33;;;;;18.62;56.10;101813.28;5030823;28;46645;-65
2022/07/05 05:33:42;;;;;;;;;10.67;6.00;;;;;18.57;56.31;101802.41;5026140;28;45282;-66
2022/07/05 05:36:08;;;;;;;;;9.50;7.50;;;;;18.60;56.15;101813.28;5029916;28;45358;-65
2022/07/05 05:38:33;;;;;;;;;5.33;5.33;;;;;18.66;56.31;101812.41;5030589;28;45291;-67
2022/07/05 05:40:58;;;;;;;;;8.00;7.00;;;;;18.68;56.17;101816.97;5029640;28;45582;-65
2022/07/05 05:43:24;;;;;;;;;10.33;8.33;;;;;18.54;56.42;101799.66;5032884;28;45139;-66
2022/07/05 05:45:49;;;;;;;;;6.67;6.67;;;;;18.64;56.32;101808.78;5032920;28;45092;-66
2022/07/05 05:48:14;;;;;;;;;8.25;7.50;;;;;18.69;56.05;101829.63;5032749;28;45155;-68
2022/07/05 05:50:40;;;;;;;;;8.33;6.00;;;;;18.57;56.05;101799.72;5031409;28;45167;-65
2022/07/05 05:53:06;;;;;;;;;12.50;9.00;;;;;18.77;56.19;101835.09;5030866;28;45743;-66
2022/07/05 05:55:32;;;;;;;;;24.00;24.00;;;;;18.74;56.12;101835.06;5032530;28;44903;-65
2022/07/05 05:58:18;;;;;;;;;15.50;13.25;;;;;18.85;56.11;101843.34;5024807;28;45375;-65
2022/07/05 06:00:47;;;;;;;;;12.50;11.25;;;;;18.88;56.01;101844.28;5023506;28;45377;-65
2022/07/05 06:03:13;;;;;;;;;9.00;8.50;;;;;18.86;55.95;101837.94;5030382;28;45125;-67
2022/07/05 06:05:39;;;;;;;;;9.50;6.00;;;;;18.90;55.66;101849.69;5027513;28;45298;-64
2022/07/05 06:08:04;;;;;;;;;7.00;7.00;;;;;18.87;55.73;101839.72;5020412;28;45616;-67
2022/07/05 06:10:32;;;;;;;;;9.00;8.67;;;;;18.90;55.63;101839.78;5023232;28;45489;-65
2022/07/05 06:13:01;;;;;;;;;9.00;6.67;;;;;18.75;55.97;101805.28;5019167;28;45581;-65
2022/07/05 06:15:27;;;;;;;;;9.75;9.75;;;;;18.66;55.40;101779.94;5023593;28;45354;-65
2022/07/05 06:17:53;;;;;;;;;9.00;9.00;;;;;18.94;55.45;101816.31;5013062;28;45375;-66
2022/07/05 06:20:21;;;;;;;;;5.00;5.00;;;;;18.95;55.53;101838.00;5012908;28;46039;-65
2022/07/05 06:22:47;;;;;;;;;11.67;10.00;;;;;18.59;56.16;101800.63;5013371;28;45418;-66
2022/07/05 06:25:13;;;;;;;;;15.00;15.00;;;;;18.88;55.85;101840.66;5013382;28;45482;-65
2022/07/05 06:27:40;;;;;;;;;8.33;6.00;;;;;18.91;55.76;101841.59;5013842;28;45429;-70
2022/07/05 06:30:07;;;;;;;;;9.00;7.00;;;;;18.85;55.70;101827.09;5013945;28;46345;-67
2022/07/05 06:32:32;;;;;;;;;6.67;6.00;;;;;18.92;55.64;101832.59;5007846;28;45616;-68
2022/07/05 06:34:57;;;;;;;;;11.67;9.00;;;;;19.02;55.74;101833.56;5014233;28;45660;-68
2022/07/05 06:37:22;;;;;;;;;14.75;12.25;;;;;19.15;55.25;101846.34;5014111;28;45699;-66
2022/07/05 06:39:48;;;;;;;;;8.33;8.33;;;;;19.04;55.25;101820.03;5013289;28;46032;-69
2022/07/05 06:42:13;;;;;;;;;10.50;10.50;;;;;19.23;55.23;101854.50;5013593;28;45435;-66
2022/07/05 06:44:38;;;;;;;;;11.00;11.00;;;;;19.20;55.05;101827.38;5013469;28;45847;-68
2022/07/05 06:47:04;;;;;;;;;10.00;10.00;;;;;19.15;54.99;101823.72;5014360;28;45407;-67
2022/07/05 06:49:29;;;;;;;;;14.67;9.33;;;;;19.22;55.22;101839.16;5013751;28;46299;-64
2022/07/05 06:51:54;;;;;;;;;10.00;8.67;;;;;19.39;54.99;101855.53;5013198;28;45402;-67
2022/07/05 06:54:20;;;;;;;;;6.67;6.67;;;;;19.34;54.87;101833.81;5013821;28;45466;-65
2022/07/05 06:56:45;;;;;;;;;12.33;10.00;;;;;19.50;54.69;101859.25;5013564;28;45550;-65
2022/07/05 06:59:10;;;;;;;;;6.33;6.33;;;;;19.33;54.83;101829.28;5013403;28;52885;-67
2022/07/05 07:01:35;;;;;;;;;12.00;9.50;;;;;19.46;54.74;101859.22;5013104;28;45609;-67
2022/07/05 07:04:01;;;;;;;;;8.33;5.00;;;;;19.40;54.79;101851.97;5013848;28;45467;-68
2022/07/05 07:06:26;;;;;;;;;12.33;9.00;;;;;19.40;54.76;101838.41;5014020;28;45318;-66
2022/07/05 07:11:35;;;;;;;;;9.67;8.67;;;;;19.56;54.68;101852.06;5013229;28;45474;-66
2022/07/05 07:14:01;;;;;;;;;13.67;10.67;;;;;19.59;54.38;101850.25;5012950;28;45443;-65
2022/07/05 07:16:27;;;;;;;;;9.00;8.67;;;;;19.66;54.04;101853.91;5013024;28;45458;-65
2022/07/05 07:18:52;;;;;;;;;17.00;11.25;;;;;19.77;54.16;101854.94;5012977;28;45326;-68
2022/07/05 07:21:17;;;;;;;;;9.67;9.33;;;;;19.75;53.60;101831.38;5013248;28;45347;-67
2022/07/05 07:23:43;;;;;;;;;10.33;8.00;;;;;19.88;53.60;101850.50;5013626;28;45494;-67
2022/07/05 07:26:08;;;;;;;;;13.00;8.50;;;;;19.97;53.49;101857.75;5013554;28;45679;-70
2022/07/05 07:28:33;;;;;;;;;54.00;44.75;;;;;19.96;53.56;101864.06;5012942;28;45406;-70
2022/07/05 07:30:59;;;;;;;;;18.50;15.25;;;;;20.04;53.38;101859.59;5012895;28;45551;-67
2022/07/05 07:33:24;;;;;;;;;11.33;10.67;;;;;20.11;52.89;101840.63;5013014;28;48110;-64
2022/07/05 07:35:49;;;;;;;;;12.25;9.50;;;;;20.18;52.81;101837.06;5013768;28;45535;-68
2022/07/05 07:38:15;;;;;;;;;10.33;8.67;;;;;20.44;52.54;101856.13;5012932;28;46272;-66
2022/07/05 07:40:40;;;;;;;;;11.00;7.67;;;;;20.48;51.91;101854.38;5013669;28;45600;-69
2022/07/05 07:43:05;;;;;;;;;9.33;7.00;;;;;20.55;51.84;101858.91;5013637;28;45736;-68
2022/07/05 07:45:31;;;;;;;;;12.50;11.00;;;;;20.34;51.75;101790.09;5006787;28;45830;-67
2022/07/05 07:47:57;;;;;;;;;10.00;9.50;;;;;20.93;50.68;101863.53;5014193;28;45981;-69
2022/07/05 07:50:22;;;;;;;;;13.00;10.00;;;;;21.10;50.79;101871.69;5012882;28;45411;-70
2022/07/05 07:52:48;;;;;;;;;12.33;11.33;;;;;21.27;50.02;101856.31;5012711;28;45347;-68
2022/07/05 07:55:15;;;;;;;;;8.00;8.00;;;;;21.53;49.29;101860.84;5013260;28;46030;-70
2022/07/05 07:57:41;;;;;;;;;13.33;12.67;;;;;21.79;48.79;101868.97;5028110;28;46265;-69
2022/07/05 08:00:07;;;;;;;;;15.33;10.67;;;;;21.31;48.60;101794.69;5012845;28;45323;-70
2022/07/05 08:02:32;;;;;;;;;12.67;11.33;;;;;21.86;48.63;101872.56;5012707;28;45458;-69
2022/07/05 08:04:58;;;;;;;;;11.67;11.33;;;;;21.90;48.36;101867.13;5016151;28;45383;-70
2022/07/05 08:07:24;;;;;;;;;11.33;9.33;;;;;21.99;48.09;101884.34;5016247;28;45863;-69
2022/07/05 08:09:50;;;;;;;;;10.33;9.33;;;;;21.95;47.77;101875.28;5016378;28;45456;-67
2022/07/05 08:12:15;;;;;;;;;14.00;11.00;;;;;21.97;47.61;101873.44;5016339;28;45308;-68
2022/07/05 08:14:41;;;;;;;;;12.33;9.67;;;;;22.02;47.61;101878.88;5016643;28;45441;-68
2022/07/05 08:17:09;;;;;;;;;14.67;9.00;;;;;21.87;47.38;101841.75;5015904;28;45271;-67
2022/07/05 08:22:21;;;;;;;;;9.33;9.33;;;;;22.05;46.85;101838.94;5015654;28;45469;-66
2022/07/05 08:24:46;;;;;;;;;13.33;11.00;;;;;22.16;46.49;101851.59;5015541;28;45517;-68
2022/07/05 08:27:12;;;;;;;;;11.00;7.67;;;;;22.24;46.25;101855.19;5015918;28;45781;-67
2022/07/05 08:29:38;;;;;;;;;11.33;10.33;;;;;22.30;46.24;101849.78;5016108;28;45416;-66
2022/07/05 08:32:04;;;;;;;;;10.67;8.00;;;;;22.29;46.06;101852.50;5016028;28;45422;-69
2022/07/05 08:34:29;;;;;;;;;10.00;9.00;;;;;22.24;46.24;101830.69;5016030;28;45309;-65
2022/07/05 08:36:54;;;;;;;;;10.33;9.33;;;;;22.36;45.83;101832.53;5015292;28;45427;-68
2022/07/05 08:39:21;;;;;;;;;7.33;7.00;;;;;22.45;45.83;101837.91;5015728;28;45495;-66
2022/07/05 08:41:51;;;;;;;;;7.67;7.00;;;;;22.48;45.33;101823.38;5014721;28;45390;-70
2022/07/05 08:44:21;;;;;;;;;8.00;6.33;;;;;22.62;45.44;101846.88;5016394;28;45352;-66
2022/07/05 08:46:48;;;;;;;;;6.00;6.00;;;;;22.62;45.62;101838.72;5014973;28;45419;-67
2022/07/05 08:49:14;;;;;;;;;10.67;9.00;;;;;22.79;45.34;101849.50;5015479;28;45418;-65
2022/07/05 08:51:42;;;;;;;;;11.67;6.67;;;;;22.89;44.58;101841.28;5015420;28;45444;-68
2022/07/05 08:54:11;;;;;;;;;10.67;7.67;;;;;22.87;43.91;101844.00;5015936;28;45526;-67
2022/07/05 08:56:37;;;;;;;;;12.00;7.00;;;;;22.90;44.04;101838.53;5015276;28;45426;-67
2022/07/05 08:59:03;;;;;;;;;8.33;8.33;;;;;22.98;43.99;101841.19;5015558;28;45541;-68
2022/07/05 09:01:31;;;;;;;;;8.67;7.00;;;;;22.85;43.86;101814.94;5015668;28;45493;-70
2022/07/05 09:04:01;;;;;;;;;8.00;8.00;;;;;23.07;43.25;101848.44;5016134;28;45451;-65
2022/07/05 09:06:27;;;;;;;;;9.33;6.33;;;;;23.00;43.22;101840.25;5015667;28;45497;-68
2022/07/05 09:08:55;;;;;;;;;9.00;7.33;;;;;23.04;43.43;101838.41;5015250;28;45466;-67
2022/07/05 09:11:28;;;;;;;;;7.33;6.33;;;;;23.12;43.31;101841.13;5015993;28;45465;-65
2022/07/05 09:13:57;;;;;;;;;5.33;5.33;;;;;23.12;42.90;101835.66;5015064;28;45378;-64
2022/07/05 09:16:23;;;;;;;;;7.67;5.67;;;;;23.16;42.38;101834.72;5014940;28;45357;-69
2022/07/05 09:18:51;;;;;;;;;8.00;8.00;;;;;23.20;42.29;101831.06;5015005;28;45402;-68
2022/07/05 09:21:18;;;;;;;;;10.00;9.33;;;;;23.32;42.51;101839.09;5014395;28;45577;-68
2022/07/05 09:23:45;;;;;;;;;7.00;5.00;;;;;23.45;41.27;101831.72;5015143;28;45442;-68
2022/07/05 09:26:10;;;;;;;;;7.67;7.00;;;;;23.59;41.26;101842.47;5014547;28;45987;-65
2022/07/05 09:28:36;;;;;;;;;3.67;3.67;;;;;23.54;40.37;101814.34;5014873;28;45385;-65
2022/07/05 09:31:02;;;;;;;;;10.67;7.00;;;;;23.73;40.98;101840.53;5013575;28;45305;-68
2022/07/05 09:33:27;;;;;;;;;4.67;4.67;;;;;23.80;41.22;101844.09;5015037;28;45428;-67
2022/07/05 09:35:59;;;;;;;;;5.00;5.00;;;;;23.88;40.94;101839.47;5014732;28;46176;-66
2022/07/05 09:38:26;;;;;;;;;8.00;7.00;;;;;23.88;40.80;101835.84;5015644;28;45537;-67
2022/07/05 09:40:54;;;;;;;;;5.67;5.67;;;;;23.99;40.58;101836.63;5030438;28;45422;-69
2022/07/05 09:43:21;;;;;;;;;12.00;9.33;;;;;24.10;39.97;101836.50;5015141;28;45469;-68
2022/07/05 09:46:01;;;;;;;;;12.33;9.67;;;;;24.25;39.58;101835.38;5014105;28;45438;-66
2022/07/05 09:48:28;;;;;;;;;4.67;4.00;;;;;24.34;39.06;101835.28;5014612;28;45453;-69
2022/07/05 09:51:06;;;;;;;;;7.67;5.33;;;;;24.27;39.27;101817.19;5014673;28;45502;-66
2022/07/05 09:53:45;;;;;;;;;8.00;6.00;;;;;24.41;38.83;101839.72;5015010;28;45296;-68
2022/07/05 09:56:10;;;;;;;;;6.67;6.67;;;;;24.47;39.14;101833.28;5013273;28;47402;-65
2022/07/05 09:58:36;;;;;;;;;8.00;7.00;;;;;24.51;38.09;101831.41;5014299;28;45434;-67
2022/07/05 10:01:24;;;;;;;;;5.67;5.67;;;;;24.52;38.21;101850.50;5015008;28;45787;-66
2022/07/05 10:03:58;;;;;;;;;5.00;5.00;;;;;24.55;37.89;101845.03;5014681;28;45446;-71
2022/07/05 10:06:26;;;;;;;;;4.33;4.33;;;;;24.42;37.13;101848.84;5013813;28;46279;-68
2022/07/05 10:08:55;;;;;;;;;7.00;4.33;;;;;24.28;38.10;101843.53;5014212;28;45289;-66
2022/07/05 10:11:21;;;;;;;;;6.00;6.00;;;;;24.21;38.39;101839.09;5014422;28;45428;-67
2022/07/05 10:13:49;;;;;;;;;6.00;6.00;;;;;24.29;38.85;101832.59;5014372;28;45553;-66
2022/07/05 10:16:17;;;;;;;;;5.33;4.00;;;;;24.32;37.35;101826.22;5014009;28;46678;-65
2022/07/05 10:18:44;;;;;;;;;8.33;8.00;;;;;23.85;37.74;101743.09;5012561;28;45396;-64
2022/07/05 10:21:14;;;;;;;;;6.67;5.67;;;;;24.31;37.61;101839.88;5014071;28;45328;-66
2022/07/05 10:23:44;;;;;;;;;9.00;7.00;;;;;24.23;38.37;101838.13;5014254;28;45524;-67
2022/07/05 10:26:12;;;;;;;;;25.25;20.50;;;;;24.32;38.36;101841.66;5013054;28;47191;-67
2022/07/05 10:28:39;;;;;;;;;10.00;9.00;;;;;24.38;38.03;101847.06;5014219;28;45414;-66
2022/07/05 10:31:08;;;;;;;;;7.00;5.00;;;;;24.45;37.37;101846.03;5013733;28;45387;-65
2022/07/05 10:33:33;;;;;;;;;8.67;8.67;;;;;24.57;37.02;101851.38;5013890;28;45472;-68
2022/07/05 10:36:00;;;;;;;;;6.33;5.00;;;;;24.22;36.76;101778.06;5013309;28;45400;-65
2022/07/05 10:38:25;;;;;;;;;6.00;5.00;;;;;24.53;36.63;101829.53;5013920;28;45427;-69
2022/07/05 10:40:55;;;;;;;;;6.67;6.67;;;;;24.66;36.90;101844.88;5013974;28;45536;-67
2022/07/05 10:43:24;;;;;;;;;7.67;7.00;;;;;24.62;37.14;101829.47;5014342;28;45471;-70
2022/07/05 10:45:50;;;;;;;;;8.33;7.00;;;;;24.52;36.98;101808.59;5013935;28;45610;-68
2022/07/05 10:48:23;;;;;;;;;0.33;0.00;;;;;24.62;37.13;101807.59;5013770;28;45378;-68
2022/07/05 10:50:49;;;;;;;;;5.00;4.33;;;;;24.77;36.24;101825.59;5013072;28;46008;-68
2022/07/05 10:53:16;;;;;;;;;6.33;6.00;;;;;24.75;36.29;101820.16;5013262;28;45685;-69
2022/07/05 10:55:59;;;;;;;;;5.33;3.67;;;;;24.72;37.01;101822.91;5013006;28;45935;-66
2022/07/05 10:58:29;;;;;;;;;8.33;7.00;;;;;24.77;37.30;101833.78;5013612;28;45430;-69
2022/07/05 11:01:18;;;;;;;;;6.00;6.00;;;;;24.82;36.83;101820.94;5013540;28;45412;-68
2022/07/05 11:03:45;;;;;;;;;9.00;5.67;;;;;24.80;36.57;101809.16;5013932;28;45324;-70
2022/07/05 11:06:20;;;;;;;;;6.00;6.00;;;;;24.73;36.09;101796.47;5013402;28;45468;-68
2022/07/05 11:09:04;;;;;;;;;6.33;5.00;;;;;24.82;35.29;101816.38;5012785;28;45448;-66
2022/07/05 11:11:34;;;;;;;;;5.33;5.00;;;;;24.82;34.72;101810.91;5013341;28;45601;-66
2022/07/05 11:14:02;;;;;;;;;7.00;7.00;;;;;24.89;35.19;101813.56;5013207;28;45502;-69
2022/07/05 11:16:34;;;;;;;;;5.33;5.33;;;;;24.95;35.32;101818.94;5013285;28;45372;-70
2022/07/05 11:19:11;;;;;;;;;6.00;6.00;;;;;24.92;35.48;101821.72;5012749;28;45316;-68
2022/07/05 11:22:00;;;;;;;;;7.00;6.33;;;;;24.95;35.90;101825.28;5013114;28;46192;-70
2022/07/05 11:24:27;;;;;;;;;3.67;3.67;;;;;25.00;35.63;101817.91;5013710;28;45466;-68
2022/07/05 11:26:57;;;;;;;;;5.67;5.00;;;;;24.90;35.78;101797.13;5013458;28;46426;-71